Nibulon 1 — UUAS4 — position and weather

sailwx.info

Track history (hours):
 
Tides and Currents Weather Stations Pressure Air Temp Water Temp Dewpoint Dewpoint Depression Visibility Wind Speed Wind Dir Waves Ship Positions

Nibulon 1

Last reported at 2017-May-23 15:20 UTC. Time now 2017-May-24 04:02 UTC.
Position N 46°32' E 032°08'.

Length 38 m; draft 2.6 m.

Type: Tug. MMSI: 272641000.

Date/timePositionNaut miles runAvg speedWind from/ knotsBaromVisibWave heightAir tempDewpointWater temp
2017-May-23 15:20N 46°32' E 032°08'2 5.3
2017-May-23 15:00N 46°32' E 032°06'5 5.2
2017-May-23 14:00N 46°33' E 031°59'3 5.3
2017-May-23 13:30N 46°34' E 031°55'3 5.3
2017-May-23 13:00N 46°35' E 031°51'3 5.2
2017-May-23 12:30N 46°35' E 031°47'3 5.2
2017-May-23 12:00N 46°35' E 031°44'6 4.1
2017-May-23 10:33N 46°36' E 031°35'0 0.8
2017-May-23 10:14N 46°36' E 031°35'5 2.4
2017-May-23 08:08N 46°35' E 031°42'1 3.9
2017-May-23 08:00N 46°35' E 031°43'5 3.9
2017-May-23 06:50N 46°35' E 031°50'1 3.8
2017-May-23 06:29N 46°35' E 031°51'2 3.7
2017-May-23 06:00N 46°34' E 031°54'2 3.6
2017-May-23 05:30N 46°34' E 031°56'2 3.5
2017-May-23 05:00N 46°33' E 031°59'2 3.5
2017-May-23 04:30N 46°32' E 032°01'2 3.5
2017-May-23 04:00N 46°32' E 032°03'2 3.6
2017-May-23 03:30N 46°32' E 032°06'3 3.8
2017-May-23 02:50N 46°32' E 032°10'1 3.7
2017-May-23 02:29N 46°33' E 032°12'3 3.8
2017-May-23 01:47N 46°33' E 032°15'1 4.2
2017-May-23 01:29N 46°33' E 032°17'  
2017-May-20 16:00N 47°31' E 034°46'2 4.2
2017-May-20 15:30N 47°32' E 034°50'7 4.1
2017-May-20 13:49N 47°34' E 034°59'1 4.3
2017-May-20 13:30N 47°34' E 035°01'2 4.1
2017-May-20 13:00N 47°36' E 035°03'2 4.2
2017-May-20 12:30N 47°38' E 035°05'2 4.7
2017-May-20 12:00N 47°39' E 035°07'2 4.9
2017-May-20 11:30N 47°42' E 035°08'2 4.5
2017-May-20 11:00N 47°44' E 035°10'2 4.8
2017-May-20 10:30N 47°46' E 035°09'2 4.6
2017-May-20 10:00N 47°48' E 035°09'0 0.2
2017-May-20 09:30N 47°48' E 035°09'0 0.1
2017-May-20 09:00N 47°48' E 035°09'0 0.1
2017-May-20 08:30N 47°48' E 035°09'1 1.3
2017-May-20 08:00N 47°49' E 035°09'2 3.2
2017-May-20 07:30N 47°50' E 035°07'2 4.1
2017-May-20 07:00N 47°52' E 035°05'0 0.7
2017-May-20 06:30N 47°52' E 035°06'1 1.8
2017-May-20 06:00N 47°53' E 035°06'1 1.7
2017-May-20 05:30N 47°52' E 035°06'0 0.4
2017-May-20 05:00N 47°52' E 035°05'2 3.2
2017-May-20 04:30N 47°50' E 035°06'3 5.6
2017-May-20 04:00N 47°49' E 035°09'1 2.6
2017-May-20 03:30N 47°49' E 035°08'2 4.2
2017-May-20 03:00N 47°51' E 035°05'1 2.4
2017-May-20 02:30N 47°52' E 035°06'0 0.1
2017-May-20 02:00N 47°52' E 035°06'1 1.6
2017-May-20 01:25N 47°53' E 035°06'0 0.0
2017-May-20 00:55N 47°53' E 035°06'0 0.0
2017-May-20 00:25N 47°53' E 035°06'0 0.0
2017-May-19 23:55N 47°53' E 035°06'0 0.0
2017-May-19 23:25N 47°53' E 035°06'0 0.0
2017-May-19 22:55N 47°53' E 035°06'0 0.0
2017-May-19 22:25N 47°53' E 035°06'0 0.0
2017-May-19 21:55N 47°53' E 035°06'0 0.0
2017-May-19 21:25N 47°53' E 035°06'0 0.0
2017-May-19 20:55N 47°53' E 035°06'0 0.0
2017-May-19 20:25N 47°53' E 035°06'0 0.0
2017-May-19 19:55N 47°53' E 035°06'0 0.0
2017-May-19 19:25N 47°53' E 035°06'0 0.0
2017-May-19 18:55N 47°53' E 035°06'0 0.1
2017-May-19 18:25N 47°53' E 035°06'0 0.0
2017-May-19 17:55N 47°53' E 035°06'0 0.0
2017-May-19 17:25N 47°53' E 035°06'0 0.2
2017-May-19 16:55N 47°53' E 035°06'0 0.2
2017-May-19 16:30N 47°53' E 035°06'1 3.0
2017-May-19 16:00N 47°54' E 035°07'2 3.8
2017-May-19 15:30N 47°56' E 035°07'2 3.8
2017-May-19 15:00N 47°58' E 035°07'4 3.8
2017-May-19 13:58N 48°02' E 035°08'  
Track history (hours):
 
Tides and Currents Weather Stations Pressure Air Temp Water Temp Dewpoint Dewpoint Depression Visibility Wind Speed Wind Dir Waves Ship Positions

Nibulon 1

Last reported at 2017-May-23 15:20 UTC. Time now 2017-May-24 04:02 UTC.
Position N 46°32' E 032°08'.

Length 38 m; draft 2.6 m.

Type: Tug. MMSI: 272641000.

Date/timePositionNaut miles runAvg speedWind from/ knotsBaromVisibWave heightAir tempDewpointWater temp
2017-May-23 15:20N 46°32' E 032°08'2 5.3
2017-May-23 15:00N 46°32' E 032°06'5 5.2
2017-May-23 14:00N 46°33' E 031°59'3 5.3
2017-May-23 13:30N 46°34' E 031°55'3 5.3
2017-May-23 13:00N 46°35' E 031°51'3 5.2
2017-May-23 12:30N 46°35' E 031°47'3 5.2
2017-May-23 12:00N 46°35' E 031°44'6 4.1
2017-May-23 10:33N 46°36' E 031°35'0 0.8
2017-May-23 10:14N 46°36' E 031°35'5 2.4
2017-May-23 08:08N 46°35' E 031°42'1 3.9
2017-May-23 08:00N 46°35' E 031°43'5 3.9
2017-May-23 06:50N 46°35' E 031°50'1 3.8
2017-May-23 06:29N 46°35' E 031°51'2 3.7
2017-May-23 06:00N 46°34' E 031°54'2 3.6
2017-May-23 05:30N 46°34' E 031°56'2 3.5
2017-May-23 05:00N 46°33' E 031°59'2 3.5
2017-May-23 04:30N 46°32' E 032°01'2 3.5
2017-May-23 04:00N 46°32' E 032°03'2 3.6
2017-May-23 03:30N 46°32' E 032°06'3 3.8
2017-May-23 02:50N 46°32' E 032°10'1 3.7
2017-May-23 02:29N 46°33' E 032°12'3 3.8
2017-May-23 01:47N 46°33' E 032°15'1 4.2
2017-May-23 01:29N 46°33' E 032°17'  
2017-May-20 16:00N 47°31' E 034°46'2 4.2
2017-May-20 15:30N 47°32' E 034°50'7 4.1
2017-May-20 13:49N 47°34' E 034°59'1 4.3
2017-May-20 13:30N 47°34' E 035°01'2 4.1
2017-May-20 13:00N 47°36' E 035°03'2 4.2
2017-May-20 12:30N 47°38' E 035°05'2 4.7
2017-May-20 12:00N 47°39' E 035°07'2 4.9
2017-May-20 11:30N 47°42' E 035°08'2 4.5
2017-May-20 11:00N 47°44' E 035°10'2 4.8
2017-May-20 10:30N 47°46' E 035°09'2 4.6
2017-May-20 10:00N 47°48' E 035°09'0 0.2
2017-May-20 09:30N 47°48' E 035°09'0 0.1
2017-May-20 09:00N 47°48' E 035°09'0 0.1
2017-May-20 08:30N 47°48' E 035°09'1 1.3
2017-May-20 08:00N 47°49' E 035°09'2 3.2
2017-May-20 07:30N 47°50' E 035°07'2 4.1
2017-May-20 07:00N 47°52' E 035°05'0 0.7
2017-May-20 06:30N 47°52' E 035°06'1 1.8
2017-May-20 06:00N 47°53' E 035°06'1 1.7
2017-May-20 05:30N 47°52' E 035°06'0 0.4
2017-May-20 05:00N 47°52' E 035°05'2 3.2
2017-May-20 04:30N 47°50' E 035°06'3 5.6
2017-May-20 04:00N 47°49' E 035°09'1 2.6
2017-May-20 03:30N 47°49' E 035°08'2 4.2
2017-May-20 03:00N 47°51' E 035°05'1 2.4
2017-May-20 02:30N 47°52' E 035°06'0 0.1
2017-May-20 02:00N 47°52' E 035°06'1 1.6
2017-May-20 01:25N 47°53' E 035°06'0 0.0
2017-May-20 00:55N 47°53' E 035°06'0 0.0
2017-May-20 00:25N 47°53' E 035°06'0 0.0
2017-May-19 23:55N 47°53' E 035°06'0 0.0
2017-May-19 23:25N 47°53' E 035°06'0 0.0
2017-May-19 22:55N 47°53' E 035°06'0 0.0
2017-May-19 22:25N 47°53' E 035°06'0 0.0
2017-May-19 21:55N 47°53' E 035°06'0 0.0
2017-May-19 21:25N 47°53' E 035°06'0 0.0
2017-May-19 20:55N 47°53' E 035°06'0 0.0
2017-May-19 20:25N 47°53' E 035°06'0 0.0
2017-May-19 19:55N 47°53' E 035°06'0 0.0
2017-May-19 19:25N 47°53' E 035°06'0 0.0
2017-May-19 18:55N 47°53' E 035°06'0 0.1
2017-May-19 18:25N 47°53' E 035°06'0 0.0
2017-May-19 17:55N 47°53' E 035°06'0 0.0
2017-May-19 17:25N 47°53' E 035°06'0 0.2
2017-May-19 16:55N 47°53' E 035°06'0 0.2
2017-May-19 16:30N 47°53' E 035°06'1 3.0
2017-May-19 16:00N 47°54' E 035°07'2 3.8
2017-May-19 15:30N 47°56' E 035°07'2 3.8
2017-May-19 15:00N 47°58' E 035°07'4 3.8
2017-May-19 13:58N 48°02' E 035°08'  

Dump ship's entire track history